Terminal Aerodrome Forecast
Issued by NWS Grand Forks, ND

Home | Current Version | Previous Version | Text Only | Print | Product List | Glossary Off
Versions: 1 2 3 4 5 6 7 8 9 10 11 12 13 14 15 16 17 18 19

000
FTUS43 KFGF 291347 AAA
TAFGFK
TAF AMD
KGFK 291347Z 2914/3012 32010KT P6SM BKN008
      TEMPO 2914/2916 BKN015
     FM291600 31010KT P6SM BKN025
      TEMPO 2916/2918 BKN040
     FM291800 30010KT P6SM BKN040
     FM292100 30010KT P6SM SCT200=

USA.gov is the U.S. government's official web portal to all federal, state and local government web resources and services.